createdAt,value
2019-03-09T00:02:13.828Z,7.90
2019-03-09T00:04:41.782Z,7.90
2019-03-09T00:07:09.671Z,7.90
2019-03-09T00:09:37.530Z,7.90
2019-03-09T00:12:05.443Z,7.90
2019-03-09T00:14:33.335Z,8.00
2019-03-09T00:17:01.302Z,8.00
2019-03-09T00:19:29.229Z,8.10
2019-03-09T00:21:57.181Z,8.00
2019-03-09T00:24:43.701Z,8.00
2019-03-09T00:27:30.317Z,8.10
2019-03-09T00:30:13.467Z,8.10
2019-03-09T00:32:43.163Z,8.10
2019-03-09T00:35:11.188Z,8.10
2019-03-09T00:37:39.154Z,8.10
2019-03-09T00:40:08.059Z,8.10
2019-03-09T00:42:36.314Z,8.20
2019-03-09T00:45:04.402Z,8.20
2019-03-09T00:47:32.504Z,8.20
2019-03-09T00:50:00.427Z,8.20
2019-03-09T00:52:28.330Z,8.30
2019-03-09T00:54:56.259Z,8.30
2019-03-09T00:57:24.259Z,8.20
2019-03-09T00:59:55.893Z,8.30
2019-03-09T01:02:23.780Z,8.30
2019-03-09T01:04:51.763Z,8.30
2019-03-09T01:07:19.672Z,8.40
2019-03-09T01:09:47.939Z,8.40
2019-03-09T01:12:15.925Z,8.40
2019-03-09T01:14:44.006Z,8.40
2019-03-09T01:17:12.015Z,8.40
2019-03-09T01:19:39.922Z,8.50
2019-03-09T01:22:07.796Z,8.50
2019-03-09T01:24:35.892Z,8.50
2019-03-09T01:27:03.791Z,8.60
2019-03-09T01:29:31.687Z,8.60
2019-03-09T01:31:59.588Z,8.60
2019-03-09T01:34:27.475Z,8.70
2019-03-09T01:36:55.458Z,8.70
2019-03-09T01:39:23.482Z,8.70
2019-03-09T01:41:51.567Z,8.80
2019-03-09T01:44:19.885Z,8.80
2019-03-09T01:46:47.802Z,8.80
2019-03-09T01:49:15.676Z,8.80
2019-03-09T01:51:43.522Z,8.90
2019-03-09T01:54:11.398Z,8.90
2019-03-09T01:56:39.254Z,8.90
2019-03-09T01:59:07.114Z,9.00
2019-03-09T02:01:35.006Z,9.00
2019-03-09T02:04:02.869Z,9.10
2019-03-09T02:06:30.724Z,9.00
2019-03-09T02:08:58.598Z,9.00
2019-03-09T02:11:26.513Z,9.10
2019-03-09T02:13:54.377Z,9.10
2019-03-09T02:16:22.258Z,9.20
2019-03-09T02:18:50.151Z,9.20
2019-03-09T02:21:18.101Z,9.20
2019-03-09T02:23:45.955Z,9.30
2019-03-09T02:26:13.830Z,9.40
2019-03-09T02:28:41.698Z,9.30
2019-03-09T02:31:09.567Z,9.30
2019-03-09T02:33:37.996Z,9.30
2019-03-09T02:36:05.875Z,9.30
2019-03-09T02:38:38.970Z,9.30
2019-03-09T02:41:06.974Z,9.30
2019-03-09T02:43:34.959Z,9.30
2019-03-09T02:46:02.845Z,9.30
2019-03-09T02:48:30.827Z,9.30
2019-03-09T02:50:58.702Z,9.30
2019-03-09T02:53:26.856Z,9.20
2019-03-09T02:55:55.067Z,9.00
2019-03-09T02:58:23.137Z,9.00
2019-03-09T03:01:05.413Z,8.90
2019-03-09T03:03:33.330Z,8.90
2019-03-09T03:06:01.185Z,8.90
2019-03-09T03:08:29.070Z,8.80
2019-03-09T03:10:56.935Z,8.70
2019-03-09T03:13:24.790Z,8.60
2019-03-09T03:15:52.667Z,8.60
2019-03-09T03:18:20.536Z,8.60
2019-03-09T03:20:48.398Z,8.50
2019-03-09T03:23:16.314Z,8.50
2019-03-09T03:25:44.209Z,8.50
2019-03-09T03:28:12.317Z,8.50
2019-03-09T03:30:40.259Z,8.50
2019-03-09T03:33:08.183Z,8.50
2019-03-09T03:35:36.175Z,8.60
2019-03-09T03:38:04.120Z,8.60
2019-03-09T03:40:31.975Z,8.60
2019-03-09T03:42:59.920Z,8.60
2019-03-09T03:45:27.802Z,8.50
2019-03-09T03:47:55.681Z,8.60
2019-03-09T03:50:23.544Z,8.50
2019-03-09T03:52:51.474Z,8.60
2019-03-09T03:55:19.403Z,8.60
2019-03-09T03:57:47.279Z,8.50
2019-03-09T04:00:15.305Z,8.50
2019-03-09T04:02:43.212Z,8.60
2019-03-09T04:05:11.391Z,8.60
2019-03-09T04:07:39.446Z,8.50
2019-03-09T04:10:07.371Z,8.50
2019-03-09T04:12:35.246Z,8.50
2019-03-09T04:15:03.134Z,8.60
2019-03-09T04:17:31.541Z,8.60
2019-03-09T04:19:59.423Z,8.60
2019-03-09T04:22:27.304Z,8.60
2019-03-09T04:24:55.173Z,8.50
2019-03-09T04:27:23.099Z,8.50
2019-03-09T04:29:51.002Z,8.60
2019-03-09T04:34:46.478Z,8.50
2019-03-09T04:37:14.398Z,8.60
2019-03-09T04:39:42.266Z,8.60
2019-03-09T04:42:10.170Z,8.60
2019-03-09T04:44:38.090Z,8.60
2019-03-09T04:47:05.963Z,8.60
2019-03-09T04:49:33.821Z,8.70
2019-03-09T04:52:01.722Z,8.70
2019-03-09T04:54:29.588Z,8.70
2019-03-09T04:56:58.684Z,8.70
2019-03-09T04:59:26.645Z,8.70
2019-03-09T05:01:54.535Z,8.70
2019-03-09T05:04:51.569Z,8.70
2019-03-09T05:07:32.423Z,8.70
2019-03-09T05:10:13.375Z,8.70
2019-03-09T05:12:41.340Z,8.60
2019-03-09T05:15:09.633Z,8.60
2019-03-09T05:17:37.517Z,8.60
2019-03-09T05:20:05.431Z,8.60
2019-03-09T05:22:33.302Z,8.60
2019-03-09T05:25:01.299Z,8.70
2019-03-09T05:27:29.161Z,8.60
2019-03-09T05:29:57.025Z,8.60
2019-03-09T05:32:24.928Z,8.60
2019-03-09T05:34:52.773Z,8.60
2019-03-09T05:37:20.639Z,8.60
2019-03-09T05:39:49.514Z,8.60
2019-03-09T05:42:17.378Z,8.60
2019-03-09T05:44:45.258Z,8.60
2019-03-09T05:47:13.142Z,8.50
2019-03-09T05:49:41.039Z,8.50
2019-03-09T05:52:28.277Z,8.50
2019-03-09T05:54:56.163Z,8.50
2019-03-09T05:57:24.026Z,8.60
2019-03-09T05:59:51.980Z,8.60
2019-03-09T06:02:19.972Z,8.70
2019-03-09T06:04:48.969Z,8.80
2019-03-09T06:07:16.842Z,8.80
2019-03-09T06:09:44.708Z,8.80
2019-03-09T06:12:12.611Z,8.90
2019-03-09T06:14:40.523Z,8.90
2019-03-09T06:17:08.386Z,8.90
2019-03-09T06:19:36.246Z,8.90
2019-03-09T06:22:04.122Z,8.90
2019-03-09T06:24:31.978Z,8.90
2019-03-09T06:26:59.853Z,8.90
2019-03-09T06:29:27.734Z,8.90
2019-03-09T06:32:13.694Z,8.90
2019-03-09T06:34:41.609Z,8.90
2019-03-09T06:37:12.228Z,8.90
2019-03-09T06:39:41.422Z,8.90
2019-03-09T06:42:18.359Z,8.90
2019-03-09T06:44:46.255Z,8.90
2019-03-09T06:47:15.295Z,8.90
2019-03-09T06:50:02.478Z,8.90
2019-03-09T06:52:30.515Z,8.80
2019-03-09T06:54:58.526Z,8.90
2019-03-09T06:57:26.416Z,8.80
2019-03-09T06:59:54.278Z,8.80
2019-03-09T07:02:22.171Z,8.80
2019-03-09T07:04:50.062Z,8.80
2019-03-09T07:07:17.944Z,8.80
2019-03-09T07:09:45.822Z,8.90
2019-03-09T07:12:13.746Z,8.90
2019-03-09T07:15:09.787Z,8.90
2019-03-09T07:17:37.712Z,8.80
2019-03-09T07:20:19.665Z,8.80
2019-03-09T07:22:35.831Z,8.80
2019-03-09T07:25:03.725Z,8.80
2019-03-09T07:27:31.585Z,8.80
2019-03-09T07:29:59.558Z,8.80
2019-03-09T07:32:27.714Z,8.90
2019-03-09T07:34:55.577Z,8.80
2019-03-09T07:37:24.990Z,8.90
2019-03-09T07:39:52.866Z,8.80
2019-03-09T07:42:20.720Z,8.80
2019-03-09T07:44:48.602Z,8.80
2019-03-09T07:47:16.481Z,8.80
2019-03-09T07:49:44.366Z,8.90
2019-03-09T07:52:31.362Z,8.90
2019-03-09T07:54:59.242Z,8.90
2019-03-09T07:57:27.126Z,9.00
2019-03-09T07:59:55.026Z,9.00
2019-03-09T08:02:24.221Z,9.00
2019-03-09T08:04:52.150Z,9.10
2019-03-09T08:07:20.015Z,9.00
2019-03-09T08:09:47.894Z,8.90
2019-03-09T08:12:15.811Z,9.00
2019-03-09T08:14:43.684Z,8.90
2019-03-09T08:17:11.538Z,9.00
2019-03-09T08:19:39.438Z,9.00
2019-03-09T08:22:07.293Z,9.10
2019-03-09T08:24:35.212Z,9.10
2019-03-09T08:27:03.096Z,9.10
2019-03-09T08:29:31.068Z,9.10
2019-03-09T08:31:58.929Z,9.10
2019-03-09T08:34:26.821Z,9.10
2019-03-09T08:36:54.678Z,9.10
2019-03-09T08:39:23.567Z,9.20
2019-03-09T08:41:51.466Z,9.30
2019-03-09T08:44:19.449Z,9.30
2019-03-09T08:46:47.342Z,9.40
2019-03-09T08:49:15.332Z,9.40
2019-03-09T08:51:43.197Z,9.50
2019-03-09T08:54:11.099Z,9.60
2019-03-09T08:56:39.275Z,9.70
2019-03-09T08:59:07.155Z,9.70
2019-03-09T09:01:35.055Z,9.70
2019-03-09T09:04:02.930Z,9.80
2019-03-09T09:06:30.840Z,9.80
2019-03-09T09:08:58.685Z,9.90
2019-03-09T09:11:26.542Z,9.80
2019-03-09T09:13:54.409Z,9.80
2019-03-09T09:16:22.271Z,9.90
2019-03-09T09:18:50.126Z,9.90
2019-03-09T09:21:18.015Z,10.00
2019-03-09T09:23:45.942Z,10.00
2019-03-09T09:26:13.823Z,10.10
2019-03-09T09:28:41.695Z,10.20
2019-03-09T09:31:09.662Z,10.30
2019-03-09T09:33:37.613Z,10.30
2019-03-09T09:36:05.474Z,10.40
2019-03-09T09:38:33.334Z,10.30
2019-03-09T09:41:01.239Z,10.60
2019-03-09T09:43:29.161Z,10.80
2019-03-09T09:45:57.077Z,11.00
2019-03-09T09:48:25.019Z,11.10
2019-03-09T09:50:52.902Z,11.20
2019-03-09T09:53:20.782Z,11.70
2019-03-09T09:55:48.665Z,11.70
2019-03-09T09:58:16.525Z,11.70
2019-03-09T10:00:44.406Z,11.70
2019-03-09T10:03:12.290Z,11.60
2019-03-09T10:05:40.156Z,11.70
2019-03-09T10:08:08.025Z,11.50
2019-03-09T10:10:35.925Z,11.40
2019-03-09T10:13:03.783Z,11.30
2019-03-09T10:15:32.719Z,11.20
2019-03-09T10:18:00.643Z,11.20
2019-03-09T10:20:29.530Z,11.30
2019-03-09T10:23:04.139Z,11.30
2019-03-09T10:25:28.247Z,11.40
2019-03-09T10:27:56.166Z,11.40
2019-03-09T10:30:24.158Z,11.60
2019-03-09T10:32:52.090Z,11.70
2019-03-09T10:35:20.006Z,11.50
2019-03-09T10:37:47.978Z,11.80
2019-03-09T10:40:15.966Z,11.80
2019-03-09T10:42:43.847Z,11.50
2019-03-09T10:45:11.702Z,11.50
2019-03-09T10:47:39.606Z,11.30
2019-03-09T10:50:08.517Z,11.30
2019-03-09T10:52:36.411Z,11.10
2019-03-09T10:55:04.716Z,11.30
2019-03-09T10:57:32.586Z,11.20
2019-03-09T11:00:00.859Z,11.30
2019-03-09T11:02:28.832Z,11.20
2019-03-09T11:04:56.814Z,11.30
2019-03-09T11:07:25.814Z,11.30
2019-03-09T11:09:54.535Z,11.30
2019-03-09T11:12:22.815Z,11.40
2019-03-09T11:14:50.690Z,11.60
2019-03-09T11:17:18.602Z,11.70
2019-03-09T11:19:46.491Z,11.90
2019-03-09T11:22:14.349Z,12.00
2019-03-09T11:24:42.242Z,12.10
2019-03-09T11:27:10.090Z,12.30
2019-03-09T11:29:38.143Z,12.40
2019-03-09T11:32:06.114Z,12.00
2019-03-09T11:34:34.018Z,11.80
2019-03-09T11:37:01.878Z,11.80
2019-03-09T11:39:29.757Z,11.50
2019-03-09T11:41:57.618Z,11.20
2019-03-09T11:44:25.483Z,11.60
2019-03-09T11:46:53.774Z,12.50
2019-03-09T11:49:21.761Z,13.00
2019-03-09T11:51:50.702Z,12.40
2019-03-09T11:54:19.668Z,12.60
2019-03-09T11:56:50.011Z,13.20
2019-03-09T11:59:17.918Z,14.20
2019-03-09T12:01:46.222Z,14.20
2019-03-09T12:04:14.122Z,14.50
2019-03-09T12:06:42.379Z,15.10
2019-03-09T12:09:13.452Z,14.50
2019-03-09T12:11:41.438Z,14.50
2019-03-09T12:14:09.318Z,11.50
2019-03-09T12:16:37.223Z,9.90
2019-03-09T12:19:05.203Z,12.40
2019-03-09T12:21:33.326Z,12.40
2019-03-09T12:24:01.259Z,12.40
2019-03-09T12:26:29.992Z,12.70
2019-03-09T12:28:58.693Z,12.90
2019-03-09T12:31:27.422Z,13.30
2019-03-09T12:33:56.563Z,13.70
2019-03-09T12:36:25.318Z,14.30
2019-03-09T12:38:54.034Z,13.70
2019-03-09T12:41:22.922Z,12.30
2019-03-09T12:43:51.655Z,10.20
2019-03-09T12:46:20.398Z,10.00
2019-03-09T12:48:49.150Z,10.00
2019-03-09T12:51:17.988Z,10.00
2019-03-09T12:53:46.730Z,9.90
2019-03-09T12:56:15.458Z,10.00
2019-03-09T12:58:46.175Z,9.90
2019-03-09T13:01:14.752Z,9.80
2019-03-09T13:03:43.488Z,9.90
2019-03-09T13:06:12.249Z,10.10
2019-03-09T13:08:40.986Z,10.30
2019-03-09T13:11:09.735Z,10.40
2019-03-09T13:13:38.437Z,12.00
2019-03-09T13:16:07.242Z,11.90
2019-03-09T13:18:35.950Z,11.90
2019-03-09T13:21:04.676Z,11.80
2019-03-09T13:23:33.490Z,11.70
2019-03-09T13:26:02.464Z,11.40
2019-03-09T13:28:32.596Z,11.30
2019-03-09T13:31:01.679Z,11.10
2019-03-09T13:33:30.406Z,11.00
2019-03-09T13:35:59.145Z,10.80
2019-03-09T13:38:27.977Z,10.70
2019-03-09T13:40:56.670Z,10.70
2019-03-09T13:43:25.506Z,10.60
2019-03-09T13:45:54.217Z,10.50
2019-03-09T13:48:22.933Z,10.60
2019-03-09T13:50:51.630Z,10.50
2019-03-09T13:53:20.366Z,10.30
2019-03-09T13:55:49.142Z,10.20
2019-03-09T13:58:17.947Z,10.40
2019-03-09T14:00:46.833Z,10.90
2019-03-09T14:03:15.632Z,10.90
2019-03-09T14:05:44.474Z,11.10
2019-03-09T14:08:13.299Z,11.30
2019-03-09T14:10:42.054Z,11.40
2019-03-09T14:13:10.906Z,11.50
2019-03-09T14:15:42.105Z,11.50
2019-03-09T14:18:10.010Z,11.50
2019-03-09T14:20:38.731Z,11.40
2019-03-09T14:23:14.008Z,11.50
2019-03-09T14:25:42.809Z,11.40
2019-03-09T14:28:11.632Z,11.00
2019-03-09T14:30:39.517Z,10.70
2019-03-09T14:33:07.437Z,10.40
2019-03-09T14:35:36.299Z,10.30
2019-03-09T14:38:05.181Z,10.00
2019-03-09T14:40:38.544Z,9.80
2019-03-09T14:43:06.925Z,9.90
2019-03-09T14:45:34.816Z,10.10
2019-03-09T14:48:03.632Z,10.20
2019-03-09T14:50:33.036Z,10.10
2019-03-09T14:53:02.017Z,10.20
2019-03-09T14:55:29.999Z,10.40
2019-03-09T14:57:58.901Z,10.60
2019-03-09T15:00:26.974Z,10.60
2019-03-09T15:02:56.776Z,10.80
2019-03-09T15:05:26.815Z,10.90
2019-03-09T15:07:55.398Z,11.20
2019-03-09T15:10:23.321Z,11.20
2019-03-09T15:12:51.195Z,11.30
2019-03-09T15:15:20.023Z,11.30
2019-03-09T15:17:48.853Z,11.30
2019-03-09T15:20:19.222Z,11.50
2019-03-09T15:22:47.953Z,11.20
2019-03-09T15:25:16.711Z,11.20
2019-03-09T15:27:45.530Z,11.30
2019-03-09T15:30:13.795Z,11.20
2019-03-09T15:32:42.536Z,11.30
2019-03-09T15:35:11.345Z,11.40
2019-03-09T15:37:40.086Z,11.30
2019-03-09T15:40:08.940Z,11.40
2019-03-09T15:42:36.867Z,11.20
2019-03-09T15:45:05.703Z,11.30
2019-03-09T15:47:34.490Z,11.00
2019-03-09T15:50:03.236Z,10.90
2019-03-09T15:52:31.945Z,10.90
2019-03-09T15:55:00.727Z,10.70
2019-03-09T15:57:28.654Z,10.40
2019-03-09T15:59:57.383Z,10.20
2019-03-09T16:02:26.098Z,10.20
2019-03-09T16:04:54.886Z,9.90
2019-03-09T16:07:23.651Z,10.10
2019-03-09T16:09:52.382Z,10.10
2019-03-09T16:12:21.198Z,10.40
2019-03-09T16:14:49.170Z,10.40
2019-03-09T16:17:17.886Z,10.40
2019-03-09T16:19:45.780Z,10.70
2019-03-09T16:22:14.719Z,10.80
2019-03-09T16:24:43.423Z,10.90
2019-03-09T16:27:12.147Z,10.80
2019-03-09T16:29:40.870Z,10.80
2019-03-09T16:32:09.581Z,10.70
2019-03-09T16:34:38.339Z,10.80
2019-03-09T16:37:07.065Z,11.00
2019-03-09T16:39:35.770Z,10.90
2019-03-09T16:42:04.539Z,10.70
2019-03-09T16:44:33.254Z,10.70
2019-03-09T16:47:04.380Z,10.80
2019-03-09T16:49:33.191Z,10.50
2019-03-09T16:52:01.962Z,10.50
2019-03-09T16:54:30.670Z,10.50
2019-03-09T16:56:59.410Z,10.60
2019-03-09T16:59:28.958Z,10.60
2019-03-09T17:01:56.840Z,10.40
2019-03-09T17:04:25.582Z,10.30
2019-03-09T17:06:54.374Z,10.20
2019-03-09T17:09:23.105Z,10.30
2019-03-09T17:11:51.074Z,10.30
2019-03-09T17:14:19.889Z,10.10
2019-03-09T17:16:47.833Z,10.20
2019-03-09T17:19:15.717Z,10.10
2019-03-09T17:21:43.598Z,9.90
2019-03-09T17:24:12.318Z,9.80
2019-03-09T17:26:40.174Z,9.80
2019-03-09T17:29:08.915Z,9.80
2019-03-09T17:31:36.807Z,9.70
2019-03-09T17:34:04.669Z,9.20
2019-03-09T17:36:32.563Z,9.80
2019-03-09T17:39:00.446Z,9.70
2019-03-09T17:41:28.311Z,9.40
2019-03-09T17:43:56.222Z,9.40
2019-03-09T17:46:25.968Z,9.30
2019-03-09T17:48:54.543Z,9.30
2019-03-09T17:51:22.406Z,9.40
2019-03-09T17:53:50.267Z,9.30
2019-03-09T17:56:18.191Z,9.30
2019-03-09T17:58:46.113Z,9.30
2019-03-09T18:01:14.086Z,9.20
2019-03-09T18:03:41.972Z,9.30
2019-03-09T18:06:09.946Z,9.30
2019-03-09T18:08:37.841Z,9.20
2019-03-09T18:11:06.427Z,9.20
2019-03-09T18:13:34.299Z,9.20
2019-03-09T18:16:02.217Z,9.10
2019-03-09T18:18:30.098Z,9.00
2019-03-09T18:20:57.958Z,9.10
2019-03-09T18:23:25.850Z,9.00
2019-03-09T18:25:53.717Z,8.90
2019-03-09T18:28:21.693Z,9.00
2019-03-09T18:30:49.578Z,9.00
2019-03-09T18:33:17.447Z,8.30
2019-03-09T18:35:45.378Z,9.60
2019-03-09T18:38:13.285Z,8.80
2019-03-09T18:40:42.114Z,9.00
2019-03-09T18:43:10.028Z,9.00
2019-03-09T18:45:37.918Z,9.10
2019-03-09T18:48:05.799Z,9.10
2019-03-09T18:50:33.687Z,9.10
2019-03-09T18:53:01.584Z,9.10
2019-03-09T18:55:29.463Z,9.00
2019-03-09T18:57:57.333Z,8.80
2019-03-09T19:00:25.303Z,8.80
2019-03-09T19:02:53.438Z,8.80
2019-03-09T19:05:21.338Z,8.80
2019-03-09T19:07:49.231Z,8.80
2019-03-09T19:10:17.115Z,8.80
2019-03-09T19:12:44.980Z,8.90
2019-03-09T19:15:13.722Z,8.80
2019-03-09T19:17:41.777Z,8.70
2019-03-09T19:20:10.178Z,8.80
2019-03-09T19:22:38.089Z,8.80
2019-03-09T19:25:06.138Z,8.80
2019-03-09T19:27:34.018Z,8.80
2019-03-09T19:30:01.918Z,8.80
2019-03-09T19:32:29.823Z,8.80
2019-03-09T19:34:57.786Z,8.80
2019-03-09T19:37:25.661Z,8.70
2019-03-09T19:39:53.521Z,8.60
2019-03-09T19:42:21.402Z,8.50
2019-03-09T19:44:49.313Z,8.50
2019-03-09T19:47:17.185Z,8.60
2019-03-09T19:49:45.095Z,8.60
2019-03-09T19:52:13.050Z,8.60
2019-03-09T19:54:40.934Z,8.60
2019-03-09T19:57:08.816Z,8.50
2019-03-09T19:59:36.709Z,8.50
2019-03-09T20:02:04.620Z,8.60
2019-03-09T20:04:32.567Z,8.60
2019-03-09T20:07:00.441Z,8.60
2019-03-09T20:09:28.326Z,8.70
2019-03-09T20:11:56.203Z,8.80
2019-03-09T20:14:24.182Z,8.60
2019-03-09T20:16:52.054Z,8.60
2019-03-09T20:19:20.012Z,8.70
2019-03-09T20:21:47.941Z,8.90
2019-03-09T20:24:15.870Z,8.80
2019-03-09T20:26:43.726Z,8.80
2019-03-09T20:29:31.154Z,8.70
2019-03-09T20:31:59.023Z,8.70
2019-03-09T20:34:26.899Z,8.70
2019-03-09T20:36:54.858Z,8.70
2019-03-09T20:39:24.444Z,8.70
2019-03-09T20:41:52.369Z,8.80
2019-03-09T20:44:22.583Z,8.80
2019-03-09T20:46:50.545Z,8.70
2019-03-09T20:49:18.552Z,8.80
2019-03-09T20:51:46.493Z,8.90
2019-03-09T20:54:14.385Z,8.70
2019-03-09T20:56:42.301Z,8.70
2019-03-09T20:59:10.213Z,8.70
2019-03-09T21:01:38.168Z,8.70
2019-03-09T21:04:06.071Z,8.80
2019-03-09T21:06:33.980Z,8.80
2019-03-09T21:09:01.935Z,8.80
2019-03-09T21:11:29.915Z,8.70
2019-03-09T21:13:57.866Z,8.70
2019-03-09T21:16:25.911Z,8.80
2019-03-09T21:18:53.872Z,8.80
2019-03-09T21:21:21.792Z,8.80
2019-03-09T21:23:49.742Z,8.80
2019-03-09T21:26:17.632Z,8.70
2019-03-09T21:28:45.549Z,8.70
2019-03-09T21:31:13.503Z,8.70
2019-03-09T21:33:41.457Z,8.60
2019-03-09T21:36:09.418Z,8.60
2019-03-09T21:38:37.287Z,8.60
2019-03-09T21:41:05.191Z,8.60
2019-03-09T21:43:33.118Z,8.60
2019-03-09T21:46:00.982Z,8.70
2019-03-09T21:48:28.862Z,8.70
2019-03-09T21:50:57.679Z,8.60
2019-03-09T21:53:25.590Z,8.60
2019-03-09T21:55:53.510Z,8.60
2019-03-09T21:58:21.470Z,8.60
2019-03-09T22:00:49.390Z,8.70
2019-03-09T22:03:17.257Z,8.50
2019-03-09T22:05:45.220Z,8.50
2019-03-09T22:08:13.097Z,8.50
2019-03-09T22:10:41.007Z,8.60
2019-03-09T22:13:08.915Z,8.60
2019-03-09T22:15:36.790Z,8.60
2019-03-09T22:18:04.666Z,8.50
2019-03-09T22:20:32.564Z,8.60
2019-03-09T22:23:00.439Z,8.60
2019-03-09T22:25:28.372Z,8.50
2019-03-09T22:27:57.116Z,8.50
2019-03-09T22:30:25.129Z,8.60
2019-03-09T22:32:53.003Z,8.70
2019-03-09T22:35:20.941Z,8.70
2019-03-09T22:37:48.822Z,8.70
2019-03-09T22:40:16.754Z,8.50
2019-03-09T22:42:44.698Z,8.50
2019-03-09T22:45:12.584Z,8.60
2019-03-09T22:47:40.485Z,8.70
2019-03-09T22:50:09.246Z,8.60
2019-03-09T22:52:37.130Z,8.60
2019-03-09T22:55:05.083Z,8.60
2019-03-09T22:57:32.978Z,8.60
2019-03-09T23:00:00.862Z,8.60
2019-03-09T23:02:28.714Z,8.60
2019-03-09T23:04:56.623Z,8.60
2019-03-09T23:07:24.523Z,8.60
2019-03-09T23:09:52.446Z,8.50
2019-03-09T23:12:20.375Z,8.60
2019-03-09T23:14:48.250Z,8.70
2019-03-09T23:17:16.379Z,8.70
2019-03-09T23:19:44.327Z,8.60
2019-03-09T23:22:12.207Z,8.60
2019-03-09T23:24:40.130Z,8.60
2019-03-09T23:27:08.034Z,8.60
2019-03-09T23:29:35.994Z,8.60
2019-03-09T23:32:03.896Z,8.60
2019-03-09T23:34:31.786Z,8.70
2019-03-09T23:36:59.666Z,8.70
2019-03-09T23:39:27.557Z,8.70
2019-03-09T23:41:55.428Z,8.80
2019-03-09T23:44:23.387Z,8.80
2019-03-09T23:46:52.150Z,8.70
2019-03-09T23:49:20.050Z,8.70
2019-03-09T23:51:47.931Z,8.70
2019-03-09T23:54:15.911Z,8.70
2019-03-09T23:56:43.778Z,8.70
2019-03-09T23:59:34.159Z,8.70
